sensor_id;sensor_type;location;lat;lon;timestamp;P1;durP1;ratioP1;P2;durP2;ratioP2
25023;SDS011;13033;50.936;5.334;2022-12-18T00:01:47;72.05;;;29.85;;
25023;SDS011;13033;50.936;5.334;2022-12-18T00:04:23;81.70;;;31.88;;
25023;SDS011;13033;50.936;5.334;2022-12-18T00:06:49;79.72;;;31.73;;
25023;SDS011;13033;50.936;5.334;2022-12-18T00:09:16;76.55;;;31.33;;
25023;SDS011;13033;50.936;5.334;2022-12-18T00:11:41;78.32;;;33.25;;
25023;SDS011;13033;50.936;5.334;2022-12-18T00:14:08;89.60;;;34.33;;
25023;SDS011;13033;50.936;5.334;2022-12-18T00:16:35;87.03;;;34.83;;
25023;SDS011;13033;50.936;5.334;2022-12-18T00:19:02;79.90;;;32.92;;
25023;SDS011;13033;50.936;5.334;2022-12-18T00:21:29;88.18;;;34.40;;
25023;SDS011;13033;50.936;5.334;2022-12-18T00:23:56;86.97;;;35.35;;
25023;SDS011;13033;50.936;5.334;2022-12-18T00:26:24;77.43;;;32.70;;
25023;SDS011;13033;50.936;5.334;2022-12-18T00:28:51;86.32;;;36.20;;
25023;SDS011;13033;50.936;5.334;2022-12-18T00:31:21;79.90;;;31.80;;
25023;SDS011;13033;50.936;5.334;2022-12-18T00:33:49;64.10;;;36.05;;
25023;SDS011;13033;50.936;5.334;2022-12-18T00:36:19;81.80;;;34.53;;
25023;SDS011;13033;50.936;5.334;2022-12-18T00:38:46;80.00;;;31.30;;
25023;SDS011;13033;50.936;5.334;2022-12-18T00:41:13;76.30;;;31.38;;
25023;SDS011;13033;50.936;5.334;2022-12-18T00:43:59;75.10;;;28.88;;
25023;SDS011;13033;50.936;5.334;2022-12-18T00:46:25;71.63;;;29.38;;
25023;SDS011;13033;50.936;5.334;2022-12-18T00:48:51;71.60;;;31.70;;
25023;SDS011;13033;50.936;5.334;2022-12-18T00:51:16;74.63;;;30.58;;
25023;SDS011;13033;50.936;5.334;2022-12-18T00:53:42;76.22;;;30.98;;
25023;SDS011;13033;50.936;5.334;2022-12-18T00:56:08;72.45;;;30.90;;
25023;SDS011;13033;50.936;5.334;2022-12-18T00:58:33;76.30;;;32.83;;
25023;SDS011;13033;50.936;5.334;2022-12-18T01:00:59;81.55;;;32.42;;
25023;SDS011;13033;50.936;5.334;2022-12-18T01:03:25;78.93;;;32.55;;
25023;SDS011;13033;50.936;5.334;2022-12-18T01:05:50;73.50;;;31.42;;
25023;SDS011;13033;50.936;5.334;2022-12-18T01:08:16;73.60;;;30.77;;
25023;SDS011;13033;50.936;5.334;2022-12-18T01:10:42;76.38;;;33.67;;
25023;SDS011;13033;50.936;5.334;2022-12-18T01:13:07;76.25;;;32.78;;
25023;SDS011;13033;50.936;5.334;2022-12-18T01:15:33;82.28;;;32.60;;
25023;SDS011;13033;50.936;5.334;2022-12-18T01:17:59;73.22;;;31.38;;
25023;SDS011;13033;50.936;5.334;2022-12-18T01:20:25;76.68;;;31.58;;
25023;SDS011;13033;50.936;5.334;2022-12-18T01:22:50;69.55;;;31.77;;
25023;SDS011;13033;50.936;5.334;2022-12-18T01:25:16;78.60;;;32.67;;
25023;SDS011;13033;50.936;5.334;2022-12-18T01:27:42;81.57;;;31.77;;
25023;SDS011;13033;50.936;5.334;2022-12-18T01:30:08;86.68;;;34.03;;
25023;SDS011;13033;50.936;5.334;2022-12-18T01:32:34;73.47;;;32.42;;
25023;SDS011;13033;50.936;5.334;2022-12-18T01:34:59;76.50;;;30.40;;
25023;SDS011;13033;50.936;5.334;2022-12-18T01:37:25;76.57;;;32.42;;
25023;SDS011;13033;50.936;5.334;2022-12-18T01:39:52;74.35;;;32.58;;
25023;SDS011;13033;50.936;5.334;2022-12-18T01:42:19;72.90;;;30.38;;
25023;SDS011;13033;50.936;5.334;2022-12-18T01:50:10;68.20;;;30.85;;
25023;SDS011;13033;50.936;5.334;2022-12-18T01:52:40;66.22;;;29.88;;
25023;SDS011;13033;50.936;5.334;2022-12-18T01:55:11;69.05;;;30.27;;
25023;SDS011;13033;50.936;5.334;2022-12-18T01:57:40;70.85;;;30.15;;
25023;SDS011;13033;50.936;5.334;2022-12-18T02:00:27;70.13;;;31.50;;
25023;SDS011;13033;50.936;5.334;2022-12-18T02:02:53;79.43;;;32.63;;
25023;SDS011;13033;50.936;5.334;2022-12-18T02:05:22;73.63;;;31.30;;
25023;SDS011;13033;50.936;5.334;2022-12-18T02:16:02;67.57;;;30.20;;
25023;SDS011;13033;50.936;5.334;2022-12-18T02:18:35;78.93;;;31.73;;
25023;SDS011;13033;50.936;5.334;2022-12-18T02:23:47;66.72;;;30.77;;
25023;SDS011;13033;50.936;5.334;2022-12-18T02:31:30;72.28;;;29.35;;
25023;SDS011;13033;50.936;5.334;2022-12-18T02:34:02;71.97;;;30.90;;
25023;SDS011;13033;50.936;5.334;2022-12-18T02:36:30;66.13;;;29.63;;
25023;SDS011;13033;50.936;5.334;2022-12-18T02:38:58;72.13;;;29.70;;
25023;SDS011;13033;50.936;5.334;2022-12-18T02:41:26;76.05;;;30.20;;
25023;SDS011;13033;50.936;5.334;2022-12-18T02:43:55;81.53;;;32.78;;
25023;SDS011;13033;50.936;5.334;2022-12-18T02:46:33;78.18;;;32.72;;
25023;SDS011;13033;50.936;5.334;2022-12-18T02:49:19;82.40;;;32.47;;
25023;SDS011;13033;50.936;5.334;2022-12-18T02:51:55;80.75;;;31.35;;
25023;SDS011;13033;50.936;5.334;2022-12-18T03:00:17;66.55;;;27.58;;
25023;SDS011;13033;50.936;5.334;2022-12-18T03:05:30;62.35;;;26.40;;
25023;SDS011;13033;50.936;5.334;2022-12-18T03:08:07;77.38;;;28.63;;
25023;SDS011;13033;50.936;5.334;2022-12-18T03:10:42;70.43;;;27.63;;
25023;SDS011;13033;50.936;5.334;2022-12-18T03:13:22;64.88;;;26.33;;
25023;SDS011;13033;50.936;5.334;2022-12-18T03:15:53;66.13;;;27.17;;
25023;SDS011;13033;50.936;5.334;2022-12-18T03:18:23;65.93;;;26.55;;
25023;SDS011;13033;50.936;5.334;2022-12-18T03:20:56;65.47;;;27.08;;
25023;SDS011;13033;50.936;5.334;2022-12-18T03:23:25;57.60;;;25.10;;
25023;SDS011;13033;50.936;5.334;2022-12-18T03:25:54;56.55;;;23.40;;
25023;SDS011;13033;50.936;5.334;2022-12-18T03:28:23;57.33;;;22.92;;
25023;SDS011;13033;50.936;5.334;2022-12-18T03:30:53;51.40;;;23.42;;
25023;SDS011;13033;50.936;5.334;2022-12-18T03:33:25;54.38;;;22.30;;
25023;SDS011;13033;50.936;5.334;2022-12-18T03:35:56;47.50;;;20.85;;
25023;SDS011;13033;50.936;5.334;2022-12-18T03:38:22;48.22;;;21.20;;
25023;SDS011;13033;50.936;5.334;2022-12-18T03:44:15;45.78;;;19.75;;
25023;SDS011;13033;50.936;5.334;2022-12-18T03:47:06;45.83;;;19.77;;
25023;SDS011;13033;50.936;5.334;2022-12-18T03:54:49;44.47;;;19.25;;
25023;SDS011;13033;50.936;5.334;2022-12-18T03:57:20;45.33;;;19.48;;
25023;SDS011;13033;50.936;5.334;2022-12-18T03:59:50;45.95;;;19.30;;
25023;SDS011;13033;50.936;5.334;2022-12-18T04:02:22;42.70;;;19.45;;
25023;SDS011;13033;50.936;5.334;2022-12-18T04:04:51;44.50;;;19.25;;
25023;SDS011;13033;50.936;5.334;2022-12-18T04:07:19;42.75;;;20.02;;
25023;SDS011;13033;50.936;5.334;2022-12-18T04:09:46;49.70;;;19.80;;
25023;SDS011;13033;50.936;5.334;2022-12-18T04:12:13;45.33;;;19.40;;
25023;SDS011;13033;50.936;5.334;2022-12-18T04:14:39;39.53;;;19.38;;
25023;SDS011;13033;50.936;5.334;2022-12-18T04:17:04;40.95;;;18.48;;
25023;SDS011;13033;50.936;5.334;2022-12-18T04:19:30;44.28;;;19.83;;
25023;SDS011;13033;50.936;5.334;2022-12-18T04:21:56;43.65;;;19.42;;
25023;SDS011;13033;50.936;5.334;2022-12-18T04:24:21;45.17;;;19.73;;
25023;SDS011;13033;50.936;5.334;2022-12-18T04:26:47;39.55;;;19.05;;
25023;SDS011;13033;50.936;5.334;2022-12-18T04:29:12;41.15;;;18.88;;
25023;SDS011;13033;50.936;5.334;2022-12-18T04:31:38;44.50;;;19.17;;
25023;SDS011;13033;50.936;5.334;2022-12-18T04:34:04;45.60;;;19.85;;
25023;SDS011;13033;50.936;5.334;2022-12-18T04:36:29;43.33;;;19.70;;
25023;SDS011;13033;50.936;5.334;2022-12-18T04:38:55;40.97;;;19.33;;
25023;SDS011;13033;50.936;5.334;2022-12-18T04:41:21;44.47;;;19.13;;
25023;SDS011;13033;50.936;5.334;2022-12-18T04:43:46;45.90;;;19.10;;
25023;SDS011;13033;50.936;5.334;2022-12-18T04:46:12;50.95;;;20.90;;
25023;SDS011;13033;50.936;5.334;2022-12-18T04:48:38;53.22;;;22.05;;
25023;SDS011;13033;50.936;5.334;2022-12-18T04:51:04;55.92;;;24.15;;
25023;SDS011;13033;50.936;5.334;2022-12-18T04:53:30;55.33;;;24.83;;
25023;SDS011;13033;50.936;5.334;2022-12-18T04:56:04;59.38;;;23.60;;
25023;SDS011;13033;50.936;5.334;2022-12-18T04:58:38;58.42;;;23.77;;
25023;SDS011;13033;50.936;5.334;2022-12-18T05:01:05;51.28;;;24.67;;
25023;SDS011;13033;50.936;5.334;2022-12-18T05:03:32;52.10;;;23.92;;
25023;SDS011;13033;50.936;5.334;2022-12-18T05:05:59;45.60;;;20.98;;
25023;SDS011;13033;50.936;5.334;2022-12-18T05:08:25;47.83;;;21.88;;
25023;SDS011;13033;50.936;5.334;2022-12-18T05:10:58;53.85;;;22.33;;
25023;SDS011;13033;50.936;5.334;2022-12-18T05:13:31;47.53;;;20.65;;
25023;SDS011;13033;50.936;5.334;2022-12-18T05:15:57;47.92;;;22.52;;
25023;SDS011;13033;50.936;5.334;2022-12-18T05:18:23;58.20;;;22.77;;
25023;SDS011;13033;50.936;5.334;2022-12-18T05:20:52;49.25;;;22.50;;
25023;SDS011;13033;50.936;5.334;2022-12-18T05:23:19;46.55;;;21.05;;
25023;SDS011;13033;50.936;5.334;2022-12-18T05:25:56;47.45;;;21.50;;
25023;SDS011;13033;50.936;5.334;2022-12-18T05:28:23;42.70;;;19.48;;
25023;SDS011;13033;50.936;5.334;2022-12-18T05:30:51;45.85;;;20.38;;
25023;SDS011;13033;50.936;5.334;2022-12-18T05:33:18;41.90;;;19.48;;
25023;SDS011;13033;50.936;5.334;2022-12-18T05:35:50;44.90;;;19.65;;
25023;SDS011;13033;50.936;5.334;2022-12-18T05:38:17;45.30;;;20.23;;
25023;SDS011;13033;50.936;5.334;2022-12-18T05:40:43;48.17;;;19.58;;
25023;SDS011;13033;50.936;5.334;2022-12-18T05:43:09;40.42;;;19.45;;
25023;SDS011;13033;50.936;5.334;2022-12-18T05:45:38;44.55;;;20.42;;
25023;SDS011;13033;50.936;5.334;2022-12-18T05:48:05;42.00;;;20.05;;
25023;SDS011;13033;50.936;5.334;2022-12-18T05:50:33;45.25;;;18.85;;
25023;SDS011;13033;50.936;5.334;2022-12-18T05:53:04;40.15;;;19.50;;
25023;SDS011;13033;50.936;5.334;2022-12-18T05:55:33;43.05;;;18.73;;
25023;SDS011;13033;50.936;5.334;2022-12-18T05:58:00;40.95;;;18.17;;
25023;SDS011;13033;50.936;5.334;2022-12-18T06:00:26;43.88;;;19.40;;
25023;SDS011;13033;50.936;5.334;2022-12-18T06:02:52;36.42;;;17.50;;
25023;SDS011;13033;50.936;5.334;2022-12-18T06:05:17;40.00;;;18.30;;
25023;SDS011;13033;50.936;5.334;2022-12-18T06:07:43;38.65;;;17.25;;
25023;SDS011;13033;50.936;5.334;2022-12-18T06:10:09;33.63;;;16.17;;
25023;SDS011;13033;50.936;5.334;2022-12-18T06:12:35;33.70;;;17.15;;
25023;SDS011;13033;50.936;5.334;2022-12-18T06:15:00;37.30;;;16.90;;
25023;SDS011;13033;50.936;5.334;2022-12-18T06:17:30;38.80;;;16.75;;
25023;SDS011;13033;50.936;5.334;2022-12-18T06:19:56;34.45;;;15.32;;
25023;SDS011;13033;50.936;5.334;2022-12-18T06:22:22;37.00;;;16.98;;
25023;SDS011;13033;50.936;5.334;2022-12-18T06:24:48;32.90;;;15.07;;
25023;SDS011;13033;50.936;5.334;2022-12-18T06:27:13;32.63;;;15.98;;
25023;SDS011;13033;50.936;5.334;2022-12-18T06:29:39;35.70;;;15.35;;
25023;SDS011;13033;50.936;5.334;2022-12-18T06:32:05;36.63;;;15.95;;
25023;SDS011;13033;50.936;5.334;2022-12-18T06:34:31;36.00;;;14.57;;
25023;SDS011;13033;50.936;5.334;2022-12-18T06:36:57;31.17;;;15.55;;
25023;SDS011;13033;50.936;5.334;2022-12-18T06:39:23;36.17;;;15.60;;
25023;SDS011;13033;50.936;5.334;2022-12-18T06:41:48;31.83;;;14.35;;
25023;SDS011;13033;50.936;5.334;2022-12-18T06:44:14;32.38;;;14.25;;
25023;SDS011;13033;50.936;5.334;2022-12-18T06:46:40;30.58;;;13.55;;
25023;SDS011;13033;50.936;5.334;2022-12-18T06:49:05;30.35;;;14.85;;
25023;SDS011;13033;50.936;5.334;2022-12-18T06:51:31;31.63;;;14.73;;
25023;SDS011;13033;50.936;5.334;2022-12-18T06:53:57;32.58;;;15.65;;
25023;SDS011;13033;50.936;5.334;2022-12-18T06:56:23;28.90;;;13.32;;
25023;SDS011;13033;50.936;5.334;2022-12-18T06:58:48;31.98;;;15.30;;
25023;SDS011;13033;50.936;5.334;2022-12-18T07:01:15;34.92;;;15.10;;
25023;SDS011;13033;50.936;5.334;2022-12-18T07:03:41;30.15;;;14.27;;
25023;SDS011;13033;50.936;5.334;2022-12-18T07:06:12;32.10;;;15.88;;
25023;SDS011;13033;50.936;5.334;2022-12-18T07:08:43;31.08;;;14.23;;
25023;SDS011;13033;50.936;5.334;2022-12-18T07:11:09;31.52;;;15.45;;
25023;SDS011;13033;50.936;5.334;2022-12-18T07:13:35;28.08;;;14.35;;
25023;SDS011;13033;50.936;5.334;2022-12-18T07:16:05;28.88;;;14.57;;
25023;SDS011;13033;50.936;5.334;2022-12-18T07:18:35;35.10;;;15.20;;
25023;SDS011;13033;50.936;5.334;2022-12-18T07:21:05;35.95;;;15.38;;
25023;SDS011;13033;50.936;5.334;2022-12-18T07:23:32;31.67;;;15.70;;
25023;SDS011;13033;50.936;5.334;2022-12-18T07:26:11;30.33;;;15.10;;
25023;SDS011;13033;50.936;5.334;2022-12-18T07:28:38;33.25;;;14.13;;
25023;SDS011;13033;50.936;5.334;2022-12-18T07:31:06;34.75;;;14.98;;
25023;SDS011;13033;50.936;5.334;2022-12-18T07:33:34;28.40;;;15.10;;
25023;SDS011;13033;50.936;5.334;2022-12-18T07:36:00;30.48;;;14.13;;
25023;SDS011;13033;50.936;5.334;2022-12-18T07:38:28;32.78;;;15.15;;
25023;SDS011;13033;50.936;5.334;2022-12-18T07:40:54;31.67;;;13.80;;
25023;SDS011;13033;50.936;5.334;2022-12-18T07:43:19;31.38;;;14.60;;
25023;SDS011;13033;50.936;5.334;2022-12-18T07:45:45;29.58;;;14.45;;
25023;SDS011;13033;50.936;5.334;2022-12-18T07:48:13;32.08;;;13.63;;
25023;SDS011;13033;50.936;5.334;2022-12-18T07:50:39;30.42;;;13.07;;
25023;SDS011;13033;50.936;5.334;2022-12-18T07:53:05;31.55;;;11.70;;
25023;SDS011;13033;50.936;5.334;2022-12-18T07:55:31;29.08;;;13.20;;
25023;SDS011;13033;50.936;5.334;2022-12-18T07:57:56;27.33;;;14.15;;
25023;SDS011;13033;50.936;5.334;2022-12-18T08:00:25;29.48;;;12.85;;
25023;SDS011;13033;50.936;5.334;2022-12-18T08:02:50;28.50;;;13.00;;
25023;SDS011;13033;50.936;5.334;2022-12-18T08:05:16;26.75;;;13.23;;
25023;SDS011;13033;50.936;5.334;2022-12-18T08:07:42;28.23;;;12.85;;
25023;SDS011;13033;50.936;5.334;2022-12-18T08:10:08;27.42;;;12.50;;
25023;SDS011;13033;50.936;5.334;2022-12-18T08:12:33;29.98;;;13.73;;
25023;SDS011;13033;50.936;5.334;2022-12-18T08:14:59;25.85;;;12.73;;
25023;SDS011;13033;50.936;5.334;2022-12-18T08:17:25;26.75;;;12.80;;
25023;SDS011;13033;50.936;5.334;2022-12-18T08:19:50;28.88;;;13.90;;
25023;SDS011;13033;50.936;5.334;2022-12-18T08:22:16;26.88;;;13.43;;
25023;SDS011;13033;50.936;5.334;2022-12-18T08:24:42;28.45;;;12.40;;
25023;SDS011;13033;50.936;5.334;2022-12-18T08:27:08;27.58;;;12.63;;
25023;SDS011;13033;50.936;5.334;2022-12-18T08:29:33;31.65;;;13.43;;
25023;SDS011;13033;50.936;5.334;2022-12-18T08:31:59;24.88;;;13.23;;
25023;SDS011;13033;50.936;5.334;2022-12-18T08:34:25;25.75;;;12.55;;
25023;SDS011;13033;50.936;5.334;2022-12-18T08:36:51;24.65;;;10.57;;
25023;SDS011;13033;50.936;5.334;2022-12-18T08:39:17;30.23;;;13.65;;
25023;SDS011;13033;50.936;5.334;2022-12-18T08:41:42;30.00;;;13.43;;
25023;SDS011;13033;50.936;5.334;2022-12-18T08:44:28;27.15;;;12.27;;
25023;SDS011;13033;50.936;5.334;2022-12-18T08:47:02;31.30;;;13.93;;
25023;SDS011;13033;50.936;5.334;2022-12-18T08:49:29;25.33;;;13.38;;
25023;SDS011;13033;50.936;5.334;2022-12-18T08:51:55;29.08;;;12.23;;
25023;SDS011;13033;50.936;5.334;2022-12-18T08:54:22;27.17;;;11.98;;
25023;SDS011;13033;50.936;5.334;2022-12-18T08:56:48;22.63;;;11.15;;
25023;SDS011;13033;50.936;5.334;2022-12-18T08:59:17;27.13;;;12.00;;
25023;SDS011;13033;50.936;5.334;2022-12-18T09:01:43;22.95;;;11.63;;
25023;SDS011;13033;50.936;5.334;2022-12-18T09:04:10;23.67;;;11.13;;
25023;SDS011;13033;50.936;5.334;2022-12-18T09:06:35;27.85;;;11.98;;
25023;SDS011;13033;50.936;5.334;2022-12-18T09:09:02;22.88;;;11.65;;
25023;SDS011;13033;50.936;5.334;2022-12-18T09:11:30;25.38;;;12.43;;
25023;SDS011;13033;50.936;5.334;2022-12-18T09:13:57;27.45;;;12.63;;
25023;SDS011;13033;50.936;5.334;2022-12-18T09:16:25;23.77;;;11.30;;
25023;SDS011;13033;50.936;5.334;2022-12-18T09:18:53;27.30;;;12.20;;
25023;SDS011;13033;50.936;5.334;2022-12-18T09:23:51;21.88;;;11.32;;
25023;SDS011;13033;50.936;5.334;2022-12-18T09:26:18;26.30;;;12.52;;
25023;SDS011;13033;50.936;5.334;2022-12-18T09:28:50;25.17;;;12.32;;
25023;SDS011;13033;50.936;5.334;2022-12-18T09:31:16;29.92;;;13.27;;
25023;SDS011;13033;50.936;5.334;2022-12-18T09:33:43;23.65;;;11.90;;
25023;SDS011;13033;50.936;5.334;2022-12-18T09:36:10;24.67;;;12.15;;
25023;SDS011;13033;50.936;5.334;2022-12-18T09:38:37;26.23;;;12.18;;
25023;SDS011;13033;50.936;5.334;2022-12-18T09:43:49;24.52;;;11.18;;
25023;SDS011;13033;50.936;5.334;2022-12-18T09:46:23;23.05;;;11.80;;
25023;SDS011;13033;50.936;5.334;2022-12-18T09:49:02;21.67;;;10.82;;
25023;SDS011;13033;50.936;5.334;2022-12-18T09:51:37;23.85;;;12.38;;
25023;SDS011;13033;50.936;5.334;2022-12-18T09:54:11;22.05;;;11.93;;
25023;SDS011;13033;50.936;5.334;2022-12-18T09:56:41;26.10;;;13.40;;
25023;SDS011;13033;50.936;5.334;2022-12-18T09:59:18;23.20;;;12.35;;
25023;SDS011;13033;50.936;5.334;2022-12-18T10:01:51;29.13;;;12.52;;
25023;SDS011;13033;50.936;5.334;2022-12-18T10:04:16;25.08;;;13.48;;
25023;SDS011;13033;50.936;5.334;2022-12-18T10:12:18;30.85;;;14.00;;
25023;SDS011;13033;50.936;5.334;2022-12-18T10:20:40;25.30;;;12.52;;
25023;SDS011;13033;50.936;5.334;2022-12-18T10:28:33;25.85;;;12.55;;
25023;SDS011;13033;50.936;5.334;2022-12-18T10:31:01;28.10;;;13.73;;
25023;SDS011;13033;50.936;5.334;2022-12-18T10:33:28;22.42;;;12.48;;
25023;SDS011;13033;50.936;5.334;2022-12-18T10:35:57;25.30;;;12.95;;
25023;SDS011;13033;50.936;5.334;2022-12-18T10:43:21;25.90;;;13.30;;
25023;SDS011;13033;50.936;5.334;2022-12-18T10:45:59;25.50;;;13.70;;
25023;SDS011;13033;50.936;5.334;2022-12-18T10:51:21;23.88;;;12.93;;
25023;SDS011;13033;50.936;5.334;2022-12-18T10:53:54;24.55;;;12.63;;
25023;SDS011;13033;50.936;5.334;2022-12-18T10:56:23;29.65;;;14.45;;
25023;SDS011;13033;50.936;5.334;2022-12-18T10:59:02;25.73;;;14.25;;
25023;SDS011;13033;50.936;5.334;2022-12-18T11:04:17;27.65;;;13.95;;
25023;SDS011;13033;50.936;5.334;2022-12-18T11:06:52;26.10;;;14.75;;
25023;SDS011;13033;50.936;5.334;2022-12-18T11:09:21;25.33;;;14.10;;
25023;SDS011;13033;50.936;5.334;2022-12-18T11:11:52;28.77;;;14.48;;
25023;SDS011;13033;50.936;5.334;2022-12-18T11:16:53;26.67;;;14.45;;
25023;SDS011;13033;50.936;5.334;2022-12-18T11:19:33;26.55;;;15.10;;
25023;SDS011;13033;50.936;5.334;2022-12-18T11:22:02;28.27;;;14.30;;
25023;SDS011;13033;50.936;5.334;2022-12-18T11:24:43;26.10;;;14.07;;
25023;SDS011;13033;50.936;5.334;2022-12-18T11:27:17;29.70;;;14.95;;
25023;SDS011;13033;50.936;5.334;2022-12-18T11:29:43;32.25;;;15.02;;
25023;SDS011;13033;50.936;5.334;2022-12-18T11:34:51;27.42;;;14.90;;
25023;SDS011;13033;50.936;5.334;2022-12-18T11:37:22;31.15;;;15.18;;
25023;SDS011;13033;50.936;5.334;2022-12-18T11:39:56;28.60;;;14.93;;
25023;SDS011;13033;50.936;5.334;2022-12-18T11:42:38;27.55;;;14.35;;
25023;SDS011;13033;50.936;5.334;2022-12-18T11:47:51;26.67;;;14.57;;
25023;SDS011;13033;50.936;5.334;2022-12-18T11:50:31;28.98;;;14.32;;
25023;SDS011;13033;50.936;5.334;2022-12-18T11:53:11;25.67;;;13.68;;
25023;SDS011;13033;50.936;5.334;2022-12-18T11:55:49;25.85;;;14.27;;
25023;SDS011;13033;50.936;5.334;2022-12-18T12:10:03;27.55;;;14.15;;
25023;SDS011;13033;50.936;5.334;2022-12-18T12:18:19;26.42;;;14.18;;
25023;SDS011;13033;50.936;5.334;2022-12-18T12:20:59;31.08;;;14.25;;
25023;SDS011;13033;50.936;5.334;2022-12-18T12:26:08;29.67;;;13.80;;
25023;SDS011;13033;50.936;5.334;2022-12-18T12:36:45;26.30;;;14.52;;
25023;SDS011;13033;50.936;5.334;2022-12-18T12:39:32;26.17;;;14.57;;
25023;SDS011;13033;50.936;5.334;2022-12-18T12:42:04;28.20;;;14.27;;
25023;SDS011;13033;50.936;5.334;2022-12-18T12:44:55;27.13;;;14.75;;
25023;SDS011;13033;50.936;5.334;2022-12-18T12:47:28;28.42;;;15.98;;
25023;SDS011;13033;50.936;5.334;2022-12-18T12:49:58;27.15;;;14.85;;
25023;SDS011;13033;50.936;5.334;2022-12-18T12:52:28;29.33;;;15.43;;
25023;SDS011;13033;50.936;5.334;2022-12-18T12:55:01;26.85;;;14.98;;
25023;SDS011;13033;50.936;5.334;2022-12-18T13:02:30;27.58;;;15.27;;
25023;SDS011;13033;50.936;5.334;2022-12-18T13:07:54;28.30;;;15.20;;
25023;SDS011;13033;50.936;5.334;2022-12-18T13:10:42;27.27;;;14.03;;
25023;SDS011;13033;50.936;5.334;2022-12-18T13:13:09;27.45;;;14.93;;
25023;SDS011;13033;50.936;5.334;2022-12-18T13:15:44;31.75;;;15.00;;
25023;SDS011;13033;50.936;5.334;2022-12-18T13:18:28;28.58;;;15.00;;
25023;SDS011;13033;50.936;5.334;2022-12-18T13:25:48;30.48;;;15.48;;
25023;SDS011;13033;50.936;5.334;2022-12-18T13:31:13;26.88;;;15.82;;
25023;SDS011;13033;50.936;5.334;2022-12-18T13:33:46;28.77;;;15.70;;
25023;SDS011;13033;50.936;5.334;2022-12-18T13:38:40;28.52;;;15.38;;
25023;SDS011;13033;50.936;5.334;2022-12-18T13:46:24;26.40;;;15.00;;
25023;SDS011;13033;50.936;5.334;2022-12-18T13:51:55;25.67;;;14.40;;
25023;SDS011;13033;50.936;5.334;2022-12-18T13:54:37;29.25;;;15.10;;
25023;SDS011;13033;50.936;5.334;2022-12-18T13:57:22;29.10;;;15.77;;
25023;SDS011;13033;50.936;5.334;2022-12-18T13:59:55;26.73;;;15.07;;
25023;SDS011;13033;50.936;5.334;2022-12-18T14:02:23;33.72;;;16.33;;
25023;SDS011;13033;50.936;5.334;2022-12-18T14:04:50;27.83;;;15.48;;
25023;SDS011;13033;50.936;5.334;2022-12-18T14:07:18;33.45;;;17.77;;
25023;SDS011;13033;50.936;5.334;2022-12-18T14:09:49;36.17;;;16.58;;
25023;SDS011;13033;50.936;5.334;2022-12-18T14:12:25;28.38;;;15.95;;
25023;SDS011;13033;50.936;5.334;2022-12-18T14:15:20;28.90;;;15.10;;
25023;SDS011;13033;50.936;5.334;2022-12-18T14:17:47;31.40;;;16.88;;
25023;SDS011;13033;50.936;5.334;2022-12-18T14:20:15;29.23;;;15.95;;
25023;SDS011;13033;50.936;5.334;2022-12-18T14:22:42;31.10;;;15.98;;
25023;SDS011;13033;50.936;5.334;2022-12-18T14:25:21;33.65;;;16.75;;
25023;SDS011;13033;50.936;5.334;2022-12-18T14:30:36;32.45;;;16.73;;
25023;SDS011;13033;50.936;5.334;2022-12-18T14:33:13;36.50;;;17.63;;
25023;SDS011;13033;50.936;5.334;2022-12-18T14:35:52;29.98;;;17.88;;
25023;SDS011;13033;50.936;5.334;2022-12-18T14:38:26;35.80;;;18.05;;
25023;SDS011;13033;50.936;5.334;2022-12-18T14:40:57;33.05;;;17.42;;
25023;SDS011;13033;50.936;5.334;2022-12-18T14:43:25;32.88;;;17.15;;
25023;SDS011;13033;50.936;5.334;2022-12-18T14:45:52;32.10;;;17.20;;
25023;SDS011;13033;50.936;5.334;2022-12-18T14:51:05;33.58;;;16.88;;
25023;SDS011;13033;50.936;5.334;2022-12-18T14:53:43;27.33;;;15.85;;
25023;SDS011;13033;50.936;5.334;2022-12-18T14:56:15;33.78;;;16.65;;
25023;SDS011;13033;50.936;5.334;2022-12-18T14:58:52;29.75;;;16.13;;
25023;SDS011;13033;50.936;5.334;2022-12-18T15:04:36;29.50;;;15.53;;
25023;SDS011;13033;50.936;5.334;2022-12-18T15:07:18;32.40;;;16.58;;
25023;SDS011;13033;50.936;5.334;2022-12-18T15:12:34;28.98;;;15.80;;
25023;SDS011;13033;50.936;5.334;2022-12-18T15:15:01;33.60;;;17.13;;
25023;SDS011;13033;50.936;5.334;2022-12-18T15:17:28;29.98;;;15.85;;
25023;SDS011;13033;50.936;5.334;2022-12-18T15:20:01;32.05;;;17.20;;
25023;SDS011;13033;50.936;5.334;2022-12-18T15:22:34;34.05;;;16.13;;
25023;SDS011;13033;50.936;5.334;2022-12-18T15:25:01;30.92;;;15.38;;
25023;SDS011;13033;50.936;5.334;2022-12-18T15:27:31;29.98;;;16.73;;
25023;SDS011;13033;50.936;5.334;2022-12-18T15:32:35;35.53;;;17.25;;
25023;SDS011;13033;50.936;5.334;2022-12-18T15:35:23;31.33;;;17.17;;
25023;SDS011;13033;50.936;5.334;2022-12-18T15:37:50;33.50;;;16.67;;
25023;SDS011;13033;50.936;5.334;2022-12-18T15:40:18;33.20;;;16.58;;
25023;SDS011;13033;50.936;5.334;2022-12-18T15:42:46;34.05;;;17.65;;
25023;SDS011;13033;50.936;5.334;2022-12-18T15:45:31;30.75;;;16.63;;
25023;SDS011;13033;50.936;5.334;2022-12-18T15:47:57;33.00;;;15.45;;
25023;SDS011;13033;50.936;5.334;2022-12-18T15:50:24;29.50;;;16.63;;
25023;SDS011;13033;50.936;5.334;2022-12-18T15:52:50;31.60;;;16.73;;
25023;SDS011;13033;50.936;5.334;2022-12-18T15:55:19;33.78;;;17.83;;
25023;SDS011;13033;50.936;5.334;2022-12-18T15:58:06;33.10;;;17.38;;
25023;SDS011;13033;50.936;5.334;2022-12-18T16:00:32;31.00;;;16.63;;
25023;SDS011;13033;50.936;5.334;2022-12-18T16:03:00;36.67;;;17.58;;
25023;SDS011;13033;50.936;5.334;2022-12-18T16:05:26;32.90;;;17.17;;
25023;SDS011;13033;50.936;5.334;2022-12-18T16:07:52;29.55;;;15.95;;
25023;SDS011;13033;50.936;5.334;2022-12-18T16:10:18;35.45;;;16.70;;
25023;SDS011;13033;50.936;5.334;2022-12-18T16:12:44;33.88;;;16.52;;
25023;SDS011;13033;50.936;5.334;2022-12-18T16:15:11;33.03;;;16.55;;
25023;SDS011;13033;50.936;5.334;2022-12-18T16:17:39;34.13;;;17.38;;
25023;SDS011;13033;50.936;5.334;2022-12-18T16:20:06;34.03;;;18.10;;
25023;SDS011;13033;50.936;5.334;2022-12-18T16:22:42;33.83;;;17.58;;
25023;SDS011;13033;50.936;5.334;2022-12-18T16:25:20;33.38;;;17.15;;
25023;SDS011;13033;50.936;5.334;2022-12-18T16:27:48;32.47;;;17.60;;
25023;SDS011;13033;50.936;5.334;2022-12-18T16:30:15;32.80;;;17.33;;
25023;SDS011;13033;50.936;5.334;2022-12-18T16:32:45;32.57;;;16.97;;
25023;SDS011;13033;50.936;5.334;2022-12-18T16:35:11;32.42;;;16.85;;
25023;SDS011;13033;50.936;5.334;2022-12-18T16:37:38;33.38;;;17.23;;
25023;SDS011;13033;50.936;5.334;2022-12-18T16:40:06;33.60;;;17.25;;
25023;SDS011;13033;50.936;5.334;2022-12-18T16:42:34;33.05;;;17.38;;
25023;SDS011;13033;50.936;5.334;2022-12-18T16:45:01;31.92;;;18.13;;
25023;SDS011;13033;50.936;5.334;2022-12-18T16:47:27;33.80;;;18.20;;
25023;SDS011;13033;50.936;5.334;2022-12-18T16:49:53;36.13;;;17.92;;
25023;SDS011;13033;50.936;5.334;2022-12-18T16:52:18;31.98;;;16.90;;
25023;SDS011;13033;50.936;5.334;2022-12-18T16:54:44;34.22;;;18.00;;
25023;SDS011;13033;50.936;5.334;2022-12-18T16:57:12;36.92;;;17.33;;
25023;SDS011;13033;50.936;5.334;2022-12-18T16:59:38;38.35;;;17.98;;
25023;SDS011;13033;50.936;5.334;2022-12-18T17:02:04;35.85;;;19.08;;